createdAt,value
2023-04-24T00:01:08.428Z,0.95
2023-04-24T00:03:35.722Z,0.82
2023-04-24T00:06:03.409Z,0.80
2023-04-24T00:08:29.918Z,0.55
2023-04-24T00:10:56.317Z,0.50
2023-04-24T00:13:22.743Z,0.80
2023-04-24T00:15:49.107Z,0.70
2023-04-24T00:18:15.541Z,0.75
2023-04-24T00:20:41.949Z,0.52
2023-04-24T00:23:08.400Z,0.40
2023-04-24T00:25:34.869Z,0.60
2023-04-24T00:28:01.645Z,0.40
2023-04-24T00:30:28.135Z,0.60
2023-04-24T00:32:54.606Z,0.50
2023-04-24T00:35:21.094Z,0.40
2023-04-24T00:37:47.488Z,0.40
2023-04-24T00:40:13.951Z,0.30
2023-04-24T00:42:41.602Z,0.60
2023-04-24T00:45:08.453Z,0.50
2023-04-24T00:47:35.260Z,0.55
2023-04-24T00:50:05.601Z,0.50
2023-04-24T00:52:34.941Z,0.40
2023-04-24T00:55:01.365Z,0.40
2023-04-24T00:57:27.890Z,0.35
2023-04-24T00:59:54.650Z,0.50
2023-04-24T01:02:22.423Z,0.50
2023-04-24T01:04:50.637Z,0.85
2023-04-24T01:07:18.546Z,0.80
2023-04-24T01:09:48.493Z,0.73
2023-04-24T01:12:15.657Z,0.80
2023-04-24T01:14:42.026Z,0.90
2023-04-24T01:17:10.140Z,0.90
2023-04-24T01:19:36.554Z,0.88
2023-04-24T01:22:03.710Z,0.60
2023-04-24T01:24:30.597Z,0.70
2023-04-24T01:26:57.842Z,0.80
2023-04-24T01:29:24.887Z,0.90
2023-04-24T01:31:51.519Z,0.70
2023-04-24T01:34:18.177Z,0.80
2023-04-24T01:36:47.134Z,0.80
2023-04-24T01:39:13.781Z,0.77
2023-04-24T01:41:40.208Z,0.90
2023-04-24T01:44:06.709Z,1.00
2023-04-24T01:46:35.561Z,0.90
2023-04-24T01:49:02.491Z,0.77
2023-04-24T01:51:28.918Z,0.80
2023-04-24T01:53:55.329Z,0.93
2023-04-24T01:56:22.906Z,0.80
2023-04-24T01:58:51.014Z,1.05
2023-04-24T02:01:21.174Z,1.00
2023-04-24T02:03:47.929Z,0.90
2023-04-24T02:06:14.608Z,0.90
2023-04-24T02:08:40.996Z,1.00
2023-04-24T02:11:07.536Z,1.00
2023-04-24T02:13:33.933Z,1.08
2023-04-24T02:16:00.476Z,1.08
2023-04-24T02:18:26.941Z,1.02
2023-04-24T02:20:53.344Z,0.95
2023-04-24T02:23:19.728Z,0.90
2023-04-24T02:25:46.733Z,1.02
2023-04-24T02:28:13.142Z,1.23
2023-04-24T02:30:39.516Z,1.10
2023-04-24T02:33:06.050Z,1.08
2023-04-24T02:35:32.503Z,1.20
2023-04-24T02:37:58.914Z,1.20
2023-04-24T02:40:25.313Z,1.50
2023-04-24T02:42:53.968Z,1.30
2023-04-24T02:45:20.403Z,1.30
2023-04-24T02:47:46.859Z,1.48
2023-04-24T02:50:13.240Z,1.50
2023-04-24T02:52:39.639Z,1.52
2023-04-24T02:55:06.344Z,1.60
2023-04-24T02:57:32.741Z,1.73
2023-04-24T02:59:59.132Z,1.70
2023-04-24T03:02:25.642Z,1.75
2023-04-24T03:04:52.142Z,1.60
2023-04-24T03:07:21.607Z,1.50
2023-04-24T03:09:48.711Z,1.40
2023-04-24T03:12:15.181Z,1.40
2023-04-24T03:14:41.570Z,1.30
2023-04-24T03:17:08.008Z,1.23
2023-04-24T03:19:34.399Z,1.70
2023-04-24T03:22:03.093Z,1.38
2023-04-24T03:24:29.608Z,1.58
2023-04-24T03:26:57.711Z,1.52
2023-04-24T03:29:24.106Z,1.63
2023-04-24T03:31:50.623Z,1.63
2023-04-24T03:34:17.122Z,1.38
2023-04-24T03:36:43.623Z,1.10
2023-04-24T03:39:09.995Z,1.20
2023-04-24T03:41:36.436Z,1.20
2023-04-24T03:44:02.837Z,1.40
2023-04-24T03:46:29.301Z,1.40
2023-04-24T03:48:55.825Z,1.40
2023-04-24T03:51:22.818Z,1.30
2023-04-24T03:53:49.948Z,1.33
2023-04-24T03:56:16.395Z,1.40
2023-04-24T03:58:42.791Z,1.58
2023-04-24T04:01:09.380Z,1.50
2023-04-24T04:03:36.003Z,1.70
2023-04-24T04:06:02.847Z,1.60
2023-04-24T04:08:29.293Z,1.65
2023-04-24T04:10:56.032Z,1.80
2023-04-24T04:13:22.381Z,1.95
2023-04-24T04:15:48.847Z,1.55
2023-04-24T04:18:16.154Z,1.50
2023-04-24T04:20:42.609Z,1.60
2023-04-24T04:23:09.151Z,1.77
2023-04-24T04:25:35.554Z,1.75
2023-04-24T04:28:03.053Z,2.05
2023-04-24T04:30:33.467Z,2.03
2023-04-24T04:33:00.384Z,2.00
2023-04-24T04:35:26.918Z,2.03
2023-04-24T04:37:53.717Z,2.30
2023-04-24T04:40:20.124Z,2.45
2023-04-24T04:42:48.578Z,2.30
2023-04-24T04:45:17.759Z,2.30
2023-04-24T04:47:44.286Z,2.00
2023-04-24T04:50:11.581Z,2.22
2023-04-24T04:52:37.962Z,2.20
2023-04-24T04:55:04.576Z,2.25
2023-04-24T04:57:31.457Z,2.33
2023-04-24T04:59:57.855Z,2.40
2023-04-24T05:02:24.344Z,2.40
2023-04-24T05:04:51.254Z,2.20
2023-04-24T05:07:17.922Z,2.60
2023-04-24T05:09:45.873Z,2.80
2023-04-24T05:12:12.280Z,3.30
2023-04-24T05:14:41.005Z,2.95
2023-04-24T05:17:07.464Z,3.15
2023-04-24T05:19:36.906Z,3.65
2023-04-24T05:22:05.207Z,3.83
2023-04-24T05:24:31.667Z,4.28
2023-04-24T05:26:59.538Z,4.40
2023-04-24T05:29:27.179Z,7.00
2023-04-24T05:31:53.616Z,8.20
2023-04-24T05:34:20.026Z,8.38
2023-04-24T05:36:46.437Z,8.23
2023-04-24T05:39:12.818Z,8.70
2023-04-24T05:41:39.236Z,8.77
2023-04-24T05:44:05.693Z,9.40
2023-04-24T05:46:32.244Z,9.35
2023-04-24T05:48:58.854Z,9.75
2023-04-24T05:51:25.589Z,9.02
2023-04-24T05:53:52.161Z,9.90
2023-04-24T05:56:19.420Z,9.70
2023-04-24T05:58:46.543Z,9.73
2023-04-24T06:01:15.064Z,9.95
2023-04-24T06:03:42.366Z,10.60
2023-04-24T06:06:09.303Z,10.13
2023-04-24T06:08:36.413Z,10.48
2023-04-24T06:11:04.510Z,10.35
2023-04-24T06:13:31.295Z,11.30
2023-04-24T06:15:57.774Z,10.50
2023-04-24T06:18:24.210Z,10.98
2023-04-24T06:20:50.779Z,11.00
2023-04-24T06:23:17.254Z,10.73
2023-04-24T06:25:43.862Z,10.85
2023-04-24T06:28:10.262Z,11.30
2023-04-24T06:30:36.678Z,10.82
2023-04-24T06:33:12.940Z,11.50
2023-04-24T06:35:45.711Z,12.20
2023-04-24T06:38:12.131Z,12.02
2023-04-24T06:40:41.559Z,12.70
2023-04-24T06:43:07.978Z,11.50
2023-04-24T06:45:34.462Z,11.90
2023-04-24T06:48:00.973Z,11.50
2023-04-24T06:50:27.522Z,12.45
2023-04-24T06:52:54.018Z,11.95
2023-04-24T06:55:20.535Z,12.20
2023-04-24T06:57:46.967Z,12.48
2023-04-24T07:00:14.795Z,12.88
2023-04-24T07:02:41.514Z,13.15
2023-04-24T07:05:09.332Z,12.63
2023-04-24T07:07:38.609Z,13.57
2023-04-24T07:10:06.220Z,13.18
2023-04-24T07:12:33.339Z,13.85
2023-04-24T07:15:01.550Z,13.25
2023-04-24T07:17:28.032Z,13.05
2023-04-24T07:19:54.485Z,13.43
2023-04-24T07:22:20.913Z,12.77
2023-04-24T07:24:47.273Z,14.00
2023-04-24T07:27:15.784Z,13.98
2023-04-24T07:29:42.742Z,13.30
2023-04-24T07:32:10.078Z,13.50
2023-04-24T07:34:36.470Z,13.60
2023-04-24T07:37:03.004Z,14.00
2023-04-24T07:39:30.169Z,15.32
2023-04-24T07:42:00.262Z,14.00
2023-04-24T07:44:26.932Z,14.05
2023-04-24T07:46:53.474Z,13.25
2023-04-24T07:49:20.144Z,12.50
2023-04-24T07:51:46.929Z,13.10
2023-04-24T07:54:13.410Z,12.70
2023-04-24T07:56:40.367Z,11.05
2023-04-24T07:59:07.262Z,11.40
2023-04-24T08:01:33.706Z,11.40
2023-04-24T08:04:01.127Z,10.05
2023-04-24T08:06:31.162Z,9.60
2023-04-24T08:08:57.876Z,9.20
2023-04-24T08:11:24.980Z,9.15
2023-04-24T08:13:51.601Z,9.15
2023-04-24T08:16:18.168Z,9.15
2023-04-24T08:18:44.620Z,8.98
2023-04-24T08:21:14.832Z,8.35
2023-04-24T08:23:41.322Z,7.00
2023-04-24T08:26:08.363Z,7.18
2023-04-24T08:28:34.741Z,6.65
2023-04-24T08:31:01.215Z,6.00
2023-04-24T08:33:27.617Z,5.75
2023-04-24T08:35:54.022Z,5.88
2023-04-24T08:38:20.561Z,5.85
2023-04-24T08:40:50.446Z,5.82
2023-04-24T08:43:17.416Z,6.00
2023-04-24T08:45:44.056Z,6.07
2023-04-24T08:48:19.859Z,5.38
2023-04-24T08:50:54.242Z,5.78
2023-04-24T08:53:20.944Z,5.68
2023-04-24T08:55:48.595Z,5.72
2023-04-24T08:58:17.193Z,4.50
2023-04-24T09:00:47.716Z,4.82
2023-04-24T09:03:18.241Z,4.82
2023-04-24T09:05:47.859Z,3.75
2023-04-24T09:08:15.068Z,4.25
2023-04-24T09:10:42.191Z,4.00
2023-04-24T09:13:10.183Z,3.70
2023-04-24T09:15:39.751Z,3.30
2023-04-24T09:18:06.371Z,3.50
2023-04-24T09:20:33.538Z,3.28
2023-04-24T09:23:00.309Z,2.80
2023-04-24T09:25:33.059Z,2.72
2023-04-24T09:28:02.730Z,3.00
2023-04-24T09:30:29.656Z,2.95
2023-04-24T09:33:14.018Z,3.00
2023-04-24T09:35:52.012Z,3.10
2023-04-24T09:38:18.660Z,3.22
2023-04-24T09:40:45.334Z,2.80
2023-04-24T09:43:12.397Z,2.70
2023-04-24T09:45:40.150Z,2.33
2023-04-24T09:48:11.175Z,2.47
2023-04-24T09:50:38.841Z,2.55
2023-04-24T09:53:06.720Z,2.60
2023-04-24T09:55:33.626Z,2.40
2023-04-24T09:58:01.269Z,2.33
2023-04-24T10:00:29.952Z,2.60
2023-04-24T10:02:57.213Z,2.38
2023-04-24T10:05:33.953Z,2.35
2023-04-24T10:08:08.362Z,2.50
2023-04-24T10:10:39.494Z,2.10
2023-04-24T10:13:06.146Z,2.10
2023-04-24T10:15:32.852Z,2.00
2023-04-24T10:18:00.083Z,2.08
2023-04-24T10:20:30.290Z,1.65
2023-04-24T10:22:57.889Z,1.90
2023-04-24T10:25:26.254Z,1.90
2023-04-24T10:27:53.840Z,1.85
2023-04-24T10:30:24.174Z,1.63
2023-04-24T10:32:50.777Z,1.48
2023-04-24T10:35:18.757Z,1.60
2023-04-24T10:37:53.256Z,1.70
2023-04-24T10:40:20.846Z,1.60
2023-04-24T10:42:54.909Z,1.77
2023-04-24T10:45:23.605Z,1.70
2023-04-24T10:48:05.002Z,1.40
2023-04-24T10:50:48.922Z,1.80
2023-04-24T10:53:19.987Z,2.05
2023-04-24T10:55:48.016Z,2.35
2023-04-24T10:58:15.849Z,2.30
2023-04-24T11:00:42.631Z,2.58
2023-04-24T11:03:26.041Z,2.38
2023-04-24T11:05:57.649Z,2.55
2023-04-24T11:08:24.848Z,2.67
2023-04-24T11:11:18.714Z,2.88
2023-04-24T11:14:00.485Z,2.85
2023-04-24T11:16:46.565Z,3.38
2023-04-24T11:19:16.386Z,3.28
2023-04-24T11:21:47.270Z,3.83
2023-04-24T11:24:40.045Z,3.72
2023-04-24T11:27:10.774Z,4.47
2023-04-24T11:29:40.069Z,4.18
2023-04-24T11:32:34.430Z,4.35
2023-04-24T11:35:06.212Z,4.15
2023-04-24T11:37:38.578Z,4.03
2023-04-24T11:40:07.080Z,4.22
2023-04-24T11:42:37.727Z,3.85
2023-04-24T11:45:15.449Z,4.10
2023-04-24T11:47:44.877Z,3.97
2023-04-24T11:50:16.220Z,3.75
2023-04-24T11:52:44.374Z,3.80
2023-04-24T11:55:17.016Z,3.60
2023-04-24T11:57:45.602Z,3.92
2023-04-24T12:00:20.592Z,3.40
2023-04-24T12:02:47.961Z,3.20
2023-04-24T12:05:22.101Z,2.45
2023-04-24T12:07:49.080Z,2.90
2023-04-24T12:10:15.850Z,2.35
2023-04-24T12:12:42.280Z,2.42
2023-04-24T12:15:09.510Z,1.60
2023-04-24T12:17:37.686Z,1.75
2023-04-24T12:20:06.692Z,1.40
2023-04-24T12:22:56.031Z,1.50
2023-04-24T12:25:25.198Z,1.20
2023-04-24T12:28:04.749Z,1.20
2023-04-24T12:30:32.800Z,1.13
2023-04-24T12:33:00.068Z,1.10
2023-04-24T12:35:28.868Z,1.15
2023-04-24T12:37:55.445Z,1.50
2023-04-24T12:40:22.841Z,1.40
2023-04-24T12:42:51.503Z,1.60
2023-04-24T12:45:21.078Z,1.55
2023-04-24T12:47:47.660Z,1.80
2023-04-24T12:50:15.961Z,1.90
2023-04-24T12:52:43.375Z,2.20
2023-04-24T12:55:10.488Z,2.50
2023-04-24T12:57:39.393Z,2.33
2023-04-24T13:00:07.480Z,2.83
2023-04-24T13:02:34.823Z,2.92
2023-04-24T13:05:02.091Z,3.35
2023-04-24T13:07:28.869Z,3.97
2023-04-24T13:09:56.276Z,4.32
2023-04-24T13:12:24.999Z,4.80
2023-04-24T13:14:51.434Z,4.47
2023-04-24T13:17:17.943Z,4.70
2023-04-24T13:19:45.672Z,5.07
2023-04-24T13:22:13.718Z,4.53
2023-04-24T13:24:43.287Z,3.92
2023-04-24T13:27:10.190Z,4.18
2023-04-24T13:29:37.390Z,4.15
2023-04-24T13:32:04.357Z,3.67
2023-04-24T13:34:30.885Z,3.90
2023-04-24T13:36:59.303Z,3.60
2023-04-24T13:39:26.766Z,3.70
2023-04-24T13:41:53.702Z,3.58
2023-04-24T13:44:21.166Z,3.33
2023-04-24T13:46:49.591Z,3.85
2023-04-24T13:49:16.561Z,3.72
2023-04-24T13:51:43.810Z,3.78
2023-04-24T13:54:10.341Z,4.20
2023-04-24T13:56:36.942Z,4.13
2023-04-24T13:59:03.506Z,3.95
2023-04-24T14:01:30.026Z,4.40
2023-04-24T14:03:56.857Z,4.45
2023-04-24T14:06:24.149Z,4.25
2023-04-24T14:08:51.346Z,4.47
2023-04-24T14:11:18.625Z,4.75
2023-04-24T14:13:46.295Z,4.68
2023-04-24T14:16:13.042Z,5.38
2023-04-24T14:18:39.501Z,4.82
2023-04-24T14:21:08.446Z,5.35
2023-04-24T14:23:34.916Z,4.90
2023-04-24T14:26:01.381Z,5.30
2023-04-24T14:28:27.807Z,5.53
2023-04-24T14:30:54.389Z,5.40
2023-04-24T14:33:20.976Z,5.93
2023-04-24T14:35:47.461Z,6.07
2023-04-24T14:38:13.914Z,5.93
2023-04-24T14:43:10.700Z,5.35
2023-04-24T14:45:38.246Z,5.68
2023-04-24T14:48:04.810Z,6.10
2023-04-24T14:50:31.333Z,6.43
2023-04-24T14:53:00.641Z,6.40
2023-04-24T14:55:27.277Z,6.38
2023-04-24T14:57:54.053Z,7.18
2023-04-24T15:00:21.198Z,6.55
2023-04-24T15:02:47.822Z,5.97
2023-04-24T15:05:14.755Z,6.15
2023-04-24T15:07:42.622Z,6.20
2023-04-24T15:10:09.546Z,6.20
2023-04-24T15:12:36.040Z,6.55
2023-04-24T15:15:02.600Z,5.60
2023-04-24T15:17:29.082Z,6.03
2023-04-24T15:19:55.587Z,6.22
2023-04-24T15:22:22.061Z,6.97
2023-04-24T15:24:48.517Z,5.93
2023-04-24T15:27:15.190Z,6.18
2023-04-24T15:29:41.556Z,6.22
2023-04-24T15:32:10.143Z,6.35
2023-04-24T15:34:37.842Z,6.32
2023-04-24T15:37:04.226Z,6.03
2023-04-24T15:39:31.200Z,5.88
2023-04-24T15:41:57.734Z,6.13
2023-04-24T15:44:24.222Z,5.80
2023-04-24T15:46:52.270Z,5.05
2023-04-24T15:49:19.422Z,5.22
2023-04-24T15:51:45.849Z,5.00
2023-04-24T15:54:12.249Z,5.53
2023-04-24T15:56:38.693Z,5.80
2023-04-24T15:59:05.695Z,5.38
2023-04-24T16:01:32.155Z,5.65
2023-04-24T16:03:58.691Z,5.05
2023-04-24T16:06:25.407Z,4.68
2023-04-24T16:08:51.833Z,4.03
2023-04-24T16:11:18.218Z,3.53
2023-04-24T16:13:44.665Z,3.78
2023-04-24T16:16:11.211Z,3.65
2023-04-24T16:18:37.697Z,3.53
2023-04-24T16:21:04.480Z,4.00
2023-04-24T16:23:30.898Z,4.00
2023-04-24T16:25:57.298Z,3.72
2023-04-24T16:28:23.890Z,2.95
2023-04-24T16:30:50.459Z,2.85
2023-04-24T16:33:16.968Z,2.72
2023-04-24T16:35:46.308Z,2.97
2023-04-24T16:38:12.708Z,2.70
2023-04-24T16:40:39.440Z,2.60
2023-04-24T16:43:05.869Z,2.40
2023-04-24T16:45:34.063Z,2.63
2023-04-24T16:48:01.296Z,2.13
2023-04-24T16:50:27.672Z,2.20
2023-04-24T16:52:54.123Z,2.30
2023-04-24T16:55:20.506Z,2.08
2023-04-24T16:57:46.963Z,1.95
